sensor_id;sensor_type;location;lat;lon;timestamp;temperature;humidity
67161;DHT22;54088;52.238;21.104;2022-09-09T00:00:37;13.30;85.80
67161;DHT22;54088;52.238;21.104;2022-09-09T00:03:18;13.30;86.70
67161;DHT22;54088;52.238;21.104;2022-09-09T00:06:18;13.40;86.70
67161;DHT22;54088;52.238;21.104;2022-09-09T00:09:04;13.40;87.00
67161;DHT22;54088;52.238;21.104;2022-09-09T00:14:48;13.10;88.00
67161;DHT22;54088;52.238;21.104;2022-09-09T00:17:43;13.10;88.50
67161;DHT22;54088;52.238;21.104;2022-09-09T00:23:05;13.00;89.60
67161;DHT22;54088;52.238;21.104;2022-09-09T00:26:04;13.00;89.70
67161;DHT22;54088;52.238;21.104;2022-09-09T00:28:38;13.00;89.70
67161;DHT22;54088;52.238;21.104;2022-09-09T00:31:18;12.90;89.60
67161;DHT22;54088;52.238;21.104;2022-09-09T00:33:46;12.90;89.90
67161;DHT22;54088;52.238;21.104;2022-09-09T00:36:15;12.90;89.90
67161;DHT22;54088;52.238;21.104;2022-09-09T00:38:46;12.90;89.70
67161;DHT22;54088;52.238;21.104;2022-09-09T00:43:55;12.80;90.30
67161;DHT22;54088;52.238;21.104;2022-09-09T00:49:59;12.90;90.30
67161;DHT22;54088;52.238;21.104;2022-09-09T00:54:59;12.90;90.00
67161;DHT22;54088;52.238;21.104;2022-09-09T00:57:46;13.00;90.10
67161;DHT22;54088;52.238;21.104;2022-09-09T01:00:35;13.00;90.00
67161;DHT22;54088;52.238;21.104;2022-09-09T01:09:07;12.90;90.20
67161;DHT22;54088;52.238;21.104;2022-09-09T01:14:11;13.00;90.50
67161;DHT22;54088;52.238;21.104;2022-09-09T01:16:40;13.10;90.40
67161;DHT22;54088;52.238;21.104;2022-09-09T01:19:07;13.10;90.30
67161;DHT22;54088;52.238;21.104;2022-09-09T01:22:01;13.10;90.20
67161;DHT22;54088;52.238;21.104;2022-09-09T01:24:42;13.10;90.30
67161;DHT22;54088;52.238;21.104;2022-09-09T01:27:09;13.10;90.40
67161;DHT22;54088;52.238;21.104;2022-09-09T01:29:36;13.10;90.20
67161;DHT22;54088;52.238;21.104;2022-09-09T01:32:37;13.10;90.50
67161;DHT22;54088;52.238;21.104;2022-09-09T01:34:50;13.10;90.40
67161;DHT22;54088;52.238;21.104;2022-09-09T01:37:16;13.10;90.50
67161;DHT22;54088;52.238;21.104;2022-09-09T01:39:44;13.00;90.50
67161;DHT22;54088;52.238;21.104;2022-09-09T01:42:13;13.00;90.40
67161;DHT22;54088;52.238;21.104;2022-09-09T01:44:40;12.90;90.60
67161;DHT22;54088;52.238;21.104;2022-09-09T01:47:06;12.90;90.80
67161;DHT22;54088;52.238;21.104;2022-09-09T01:49:32;12.90;90.90
67161;DHT22;54088;52.238;21.104;2022-09-09T01:51:58;12.80;90.90
67161;DHT22;54088;52.238;21.104;2022-09-09T01:54:27;12.80;91.00
67161;DHT22;54088;52.238;21.104;2022-09-09T02:04:52;13.00;91.00
67161;DHT22;54088;52.238;21.104;2022-09-09T02:07:41;13.00;90.90
67161;DHT22;54088;52.238;21.104;2022-09-09T02:10:12;13.00;90.80
67161;DHT22;54088;52.238;21.104;2022-09-09T02:12:45;13.00;90.90
67161;DHT22;54088;52.238;21.104;2022-09-09T02:17:57;12.80;91.00
67161;DHT22;54088;52.238;21.104;2022-09-09T02:20:23;12.90;91.10
67161;DHT22;54088;52.238;21.104;2022-09-09T02:22:51;13.00;91.00
67161;DHT22;54088;52.238;21.104;2022-09-09T02:25:20;12.90;91.10
67161;DHT22;54088;52.238;21.104;2022-09-09T02:27:48;13.00;91.00
67161;DHT22;54088;52.238;21.104;2022-09-09T02:30:15;13.00;91.00
67161;DHT22;54088;52.238;21.104;2022-09-09T02:32:42;13.00;91.00
67161;DHT22;54088;52.238;21.104;2022-09-09T02:35:17;13.00;91.00
67161;DHT22;54088;52.238;21.104;2022-09-09T02:37:44;12.90;90.90
67161;DHT22;54088;52.238;21.104;2022-09-09T02:40:14;12.90;91.40
67161;DHT22;54088;52.238;21.104;2022-09-09T02:42:47;12.90;91.20
67161;DHT22;54088;52.238;21.104;2022-09-09T02:45:15;12.90;91.60
67161;DHT22;54088;52.238;21.104;2022-09-09T02:47:44;13.00;91.20
67161;DHT22;54088;52.238;21.104;2022-09-09T02:50:25;12.90;91.10
67161;DHT22;54088;52.238;21.104;2022-09-09T02:53:17;13.00;91.20
67161;DHT22;54088;52.238;21.104;2022-09-09T02:55:59;13.00;91.10
67161;DHT22;54088;52.238;21.104;2022-09-09T02:58:28;13.10;91.00
67161;DHT22;54088;52.238;21.104;2022-09-09T03:00:53;13.20;91.00
67161;DHT22;54088;52.238;21.104;2022-09-09T03:03:20;13.20;90.80
67161;DHT22;54088;52.238;21.104;2022-09-09T03:05:47;13.20;90.70
67161;DHT22;54088;52.238;21.104;2022-09-09T03:08:13;13.30;90.60
67161;DHT22;54088;52.238;21.104;2022-09-09T03:10:39;13.20;90.60
67161;DHT22;54088;52.238;21.104;2022-09-09T03:13:04;13.30;90.60
67161;DHT22;54088;52.238;21.104;2022-09-09T03:15:31;13.20;90.60
67161;DHT22;54088;52.238;21.104;2022-09-09T03:17:58;13.20;90.70
67161;DHT22;54088;52.238;21.104;2022-09-09T03:20:25;13.20;90.70
67161;DHT22;54088;52.238;21.104;2022-09-09T03:22:52;13.30;90.70
67161;DHT22;54088;52.238;21.104;2022-09-09T03:25:17;13.30;90.70
67161;DHT22;54088;52.238;21.104;2022-09-09T03:27:43;13.30;90.80
67161;DHT22;54088;52.238;21.104;2022-09-09T03:30:09;13.30;90.80
67161;DHT22;54088;52.238;21.104;2022-09-09T03:32:36;13.20;91.00
67161;DHT22;54088;52.238;21.104;2022-09-09T03:35:01;13.20;91.10
67161;DHT22;54088;52.238;21.104;2022-09-09T03:37:27;13.20;91.20
67161;DHT22;54088;52.238;21.104;2022-09-09T03:39:53;13.10;91.40
67161;DHT22;54088;52.238;21.104;2022-09-09T03:42:20;13.00;91.70
67161;DHT22;54088;52.238;21.104;2022-09-09T03:44:47;13.00;92.00
67161;DHT22;54088;52.238;21.104;2022-09-09T03:47:18;13.10;91.90
67161;DHT22;54088;52.238;21.104;2022-09-09T03:49:44;13.20;91.80
67161;DHT22;54088;52.238;21.104;2022-09-09T03:52:10;13.20;91.60
67161;DHT22;54088;52.238;21.104;2022-09-09T03:54:36;13.20;91.70
67161;DHT22;54088;52.238;21.104;2022-09-09T03:57:02;13.20;91.60
67161;DHT22;54088;52.238;21.104;2022-09-09T03:59:28;13.20;91.90
67161;DHT22;54088;52.238;21.104;2022-09-09T04:01:54;13.20;91.80
67161;DHT22;54088;52.238;21.104;2022-09-09T04:04:20;13.30;91.60
67161;DHT22;54088;52.238;21.104;2022-09-09T04:06:46;13.30;91.60
67161;DHT22;54088;52.238;21.104;2022-09-09T04:09:13;13.30;91.50
67161;DHT22;54088;52.238;21.104;2022-09-09T04:11:39;13.40;91.50
67161;DHT22;54088;52.238;21.104;2022-09-09T04:14:05;13.30;91.50
67161;DHT22;54088;52.238;21.104;2022-09-09T04:16:32;13.30;91.50
67161;DHT22;54088;52.238;21.104;2022-09-09T04:18:58;13.40;91.40
67161;DHT22;54088;52.238;21.104;2022-09-09T04:21:25;13.40;91.30
67161;DHT22;54088;52.238;21.104;2022-09-09T04:23:51;13.40;91.40
67161;DHT22;54088;52.238;21.104;2022-09-09T04:26:17;13.50;91.50
67161;DHT22;54088;52.238;21.104;2022-09-09T04:28:43;13.50;91.30
67161;DHT22;54088;52.238;21.104;2022-09-09T04:31:11;13.50;91.20
67161;DHT22;54088;52.238;21.104;2022-09-09T04:33:39;13.50;91.10
67161;DHT22;54088;52.238;21.104;2022-09-09T04:36:05;13.40;91.40
67161;DHT22;54088;52.238;21.104;2022-09-09T04:38:31;13.40;91.30
67161;DHT22;54088;52.238;21.104;2022-09-09T04:40:57;13.30;91.40
67161;DHT22;54088;52.238;21.104;2022-09-09T04:43:23;13.40;91.90
67161;DHT22;54088;52.238;21.104;2022-09-09T04:45:51;13.40;91.50
67161;DHT22;54088;52.238;21.104;2022-09-09T04:48:17;13.40;91.60
67161;DHT22;54088;52.238;21.104;2022-09-09T04:50:43;13.40;91.50
67161;DHT22;54088;52.238;21.104;2022-09-09T04:53:09;13.30;91.70
67161;DHT22;54088;52.238;21.104;2022-09-09T04:55:34;13.30;91.70
67161;DHT22;54088;52.238;21.104;2022-09-09T04:58:07;13.30;91.90
67161;DHT22;54088;52.238;21.104;2022-09-09T05:00:34;13.40;91.80
67161;DHT22;54088;52.238;21.104;2022-09-09T05:03:07;13.40;91.80
67161;DHT22;54088;52.238;21.104;2022-09-09T05:05:34;13.40;91.60
67161;DHT22;54088;52.238;21.104;2022-09-09T05:08:04;13.40;91.80
67161;DHT22;54088;52.238;21.104;2022-09-09T05:10:31;13.40;91.80
67161;DHT22;54088;52.238;21.104;2022-09-09T05:12:57;13.50;91.60
67161;DHT22;54088;52.238;21.104;2022-09-09T05:15:22;13.70;91.60
67161;DHT22;54088;52.238;21.104;2022-09-09T05:17:48;13.70;91.20
67161;DHT22;54088;52.238;21.104;2022-09-09T05:20:14;13.90;91.00
67161;DHT22;54088;52.238;21.104;2022-09-09T05:22:39;13.90;90.90
67161;DHT22;54088;52.238;21.104;2022-09-09T05:25:06;13.70;91.00
67161;DHT22;54088;52.238;21.104;2022-09-09T05:27:34;13.70;91.00
67161;DHT22;54088;52.238;21.104;2022-09-09T05:29:59;13.70;91.20
67161;DHT22;54088;52.238;21.104;2022-09-09T05:32:25;13.80;91.20
67161;DHT22;54088;52.238;21.104;2022-09-09T05:34:51;13.80;91.20
67161;DHT22;54088;52.238;21.104;2022-09-09T05:37:18;13.80;91.10
67161;DHT22;54088;52.238;21.104;2022-09-09T05:39:43;13.70;91.30
67161;DHT22;54088;52.238;21.104;2022-09-09T05:42:09;13.70;91.50
67161;DHT22;54088;52.238;21.104;2022-09-09T05:44:35;13.80;91.50
67161;DHT22;54088;52.238;21.104;2022-09-09T05:47:01;13.90;91.40
67161;DHT22;54088;52.238;21.104;2022-09-09T05:49:26;13.70;91.20
67161;DHT22;54088;52.238;21.104;2022-09-09T05:51:52;13.60;91.60
67161;DHT22;54088;52.238;21.104;2022-09-09T05:54:18;13.60;91.80
67161;DHT22;54088;52.238;21.104;2022-09-09T05:56:44;13.70;91.80
67161;DHT22;54088;52.238;21.104;2022-09-09T05:59:10;13.70;91.60
67161;DHT22;54088;52.238;21.104;2022-09-09T06:01:37;13.60;91.90
67161;DHT22;54088;52.238;21.104;2022-09-09T06:04:06;13.70;91.80
67161;DHT22;54088;52.238;21.104;2022-09-09T06:06:34;13.70;91.80
67161;DHT22;54088;52.238;21.104;2022-09-09T06:09:03;13.80;91.90
67161;DHT22;54088;52.238;21.104;2022-09-09T06:11:32;13.80;91.90
67161;DHT22;54088;52.238;21.104;2022-09-09T06:13:59;13.80;91.80
67161;DHT22;54088;52.238;21.104;2022-09-09T06:16:26;13.90;91.90
67161;DHT22;54088;52.238;21.104;2022-09-09T06:18:54;13.90;91.70
67161;DHT22;54088;52.238;21.104;2022-09-09T06:21:25;13.90;91.70
67161;DHT22;54088;52.238;21.104;2022-09-09T06:23:51;13.90;91.80
67161;DHT22;54088;52.238;21.104;2022-09-09T06:26:20;13.90;91.60
67161;DHT22;54088;52.238;21.104;2022-09-09T06:28:48;14.00;91.60
67161;DHT22;54088;52.238;21.104;2022-09-09T06:31:16;14.00;91.50
67161;DHT22;54088;52.238;21.104;2022-09-09T06:33:53;13.90;91.50
67161;DHT22;54088;52.238;21.104;2022-09-09T06:36:31;13.90;91.70
67161;DHT22;54088;52.238;21.104;2022-09-09T06:38:58;14.00;91.80
67161;DHT22;54088;52.238;21.104;2022-09-09T06:41:28;14.00;91.70
67161;DHT22;54088;52.238;21.104;2022-09-09T06:43:54;14.00;91.50
67161;DHT22;54088;52.238;21.104;2022-09-09T06:46:27;14.10;91.40
67161;DHT22;54088;52.238;21.104;2022-09-09T06:48:54;14.00;91.60
67161;DHT22;54088;52.238;21.104;2022-09-09T06:51:33;13.90;91.70
67161;DHT22;54088;52.238;21.104;2022-09-09T06:54:01;13.80;92.00
67161;DHT22;54088;52.238;21.104;2022-09-09T06:56:31;13.90;92.00
67161;DHT22;54088;52.238;21.104;2022-09-09T06:58:59;13.90;92.00
67161;DHT22;54088;52.238;21.104;2022-09-09T07:01:31;13.80;92.10
67161;DHT22;54088;52.238;21.104;2022-09-09T07:03:58;13.90;92.30
67161;DHT22;54088;52.238;21.104;2022-09-09T07:06:29;14.00;92.00
67161;DHT22;54088;52.238;21.104;2022-09-09T07:08:57;14.10;91.80
67161;DHT22;54088;52.238;21.104;2022-09-09T07:11:27;14.20;91.60
67161;DHT22;54088;52.238;21.104;2022-09-09T07:13:53;14.30;91.60
67161;DHT22;54088;52.238;21.104;2022-09-09T07:16:20;14.30;91.40
67161;DHT22;54088;52.238;21.104;2022-09-09T07:18:46;14.30;91.40
67161;DHT22;54088;52.238;21.104;2022-09-09T07:21:13;14.30;91.40
67161;DHT22;54088;52.238;21.104;2022-09-09T07:23:39;14.30;91.20
67161;DHT22;54088;52.238;21.104;2022-09-09T07:26:10;14.30;91.40
67161;DHT22;54088;52.238;21.104;2022-09-09T07:28:37;14.30;91.30
67161;DHT22;54088;52.238;21.104;2022-09-09T07:31:04;14.30;91.40
67161;DHT22;54088;52.238;21.104;2022-09-09T07:33:32;14.30;91.20
67161;DHT22;54088;52.238;21.104;2022-09-09T07:38:55;14.30;91.40
67161;DHT22;54088;52.238;21.104;2022-09-09T07:41:24;14.30;91.40
67161;DHT22;54088;52.238;21.104;2022-09-09T07:43:51;14.40;91.30
67161;DHT22;54088;52.238;21.104;2022-09-09T07:46:18;14.50;91.00
67161;DHT22;54088;52.238;21.104;2022-09-09T07:48:49;14.50;91.00
67161;DHT22;54088;52.238;21.104;2022-09-09T07:51:20;14.40;90.90
67161;DHT22;54088;52.238;21.104;2022-09-09T07:53:48;14.50;91.20
67161;DHT22;54088;52.238;21.104;2022-09-09T07:56:17;14.50;90.90
67161;DHT22;54088;52.238;21.104;2022-09-09T07:58:45;14.50;91.20
67161;DHT22;54088;52.238;21.104;2022-09-09T08:01:28;14.60;91.10
67161;DHT22;54088;52.238;21.104;2022-09-09T08:04:00;14.60;91.00
67161;DHT22;54088;52.238;21.104;2022-09-09T08:06:28;14.60;91.00
67161;DHT22;54088;52.238;21.104;2022-09-09T08:08:54;14.60;90.90
67161;DHT22;54088;52.238;21.104;2022-09-09T08:11:21;14.70;90.50
67161;DHT22;54088;52.238;21.104;2022-09-09T08:13:49;14.70;90.60
67161;DHT22;54088;52.238;21.104;2022-09-09T08:16:17;14.70;90.80
67161;DHT22;54088;52.238;21.104;2022-09-09T08:18:43;14.80;90.90
67161;DHT22;54088;52.238;21.104;2022-09-09T08:21:11;14.70;90.50
67161;DHT22;54088;52.238;21.104;2022-09-09T08:23:38;14.70;90.60
67161;DHT22;54088;52.238;21.104;2022-09-09T08:26:11;14.60;90.70
67161;DHT22;54088;52.238;21.104;2022-09-09T08:28:38;14.60;90.80
67161;DHT22;54088;52.238;21.104;2022-09-09T08:31:14;14.60;90.90
67161;DHT22;54088;52.238;21.104;2022-09-09T08:33:40;14.50;91.00
67161;DHT22;54088;52.238;21.104;2022-09-09T08:36:09;14.60;91.10
67161;DHT22;54088;52.238;21.104;2022-09-09T08:38:36;14.70;90.90
67161;DHT22;54088;52.238;21.104;2022-09-09T08:47:20;15.00;90.60
67161;DHT22;54088;52.238;21.104;2022-09-09T08:50:18;14.90;90.50
67161;DHT22;54088;52.238;21.104;2022-09-09T08:55:50;14.80;90.60
67161;DHT22;54088;52.238;21.104;2022-09-09T09:11:51;15.10;90.10
67161;DHT22;54088;52.238;21.104;2022-09-09T09:14:25;15.20;90.20
67161;DHT22;54088;52.238;21.104;2022-09-09T09:17:21;15.20;90.10
67161;DHT22;54088;52.238;21.104;2022-09-09T09:19:48;15.20;90.30
67161;DHT22;54088;52.238;21.104;2022-09-09T09:27:21;15.20;90.10
67161;DHT22;54088;52.238;21.104;2022-09-09T09:29:51;15.10;90.30
67161;DHT22;54088;52.238;21.104;2022-09-09T09:32:21;15.20;90.30
67161;DHT22;54088;52.238;21.104;2022-09-09T09:34:54;15.30;90.40
67161;DHT22;54088;52.238;21.104;2022-09-09T09:37:31;15.10;90.30
67161;DHT22;54088;52.238;21.104;2022-09-09T09:40:18;15.10;90.50
67161;DHT22;54088;52.238;21.104;2022-09-09T09:42:56;15.10;90.60
67161;DHT22;54088;52.238;21.104;2022-09-09T09:45:43;15.00;90.60
67161;DHT22;54088;52.238;21.104;2022-09-09T09:48:12;15.10;90.80
67161;DHT22;54088;52.238;21.104;2022-09-09T09:56:01;15.40;90.40
67161;DHT22;54088;52.238;21.104;2022-09-09T09:58:31;15.40;90.40
67161;DHT22;54088;52.238;21.104;2022-09-09T10:01:00;15.40;90.20
67161;DHT22;54088;52.238;21.104;2022-09-09T10:03:31;15.50;90.20
67161;DHT22;54088;52.238;21.104;2022-09-09T10:05:58;15.50;90.10
67161;DHT22;54088;52.238;21.104;2022-09-09T10:08:25;15.60;90.00
67161;DHT22;54088;52.238;21.104;2022-09-09T10:11:23;15.50;90.00
67161;DHT22;54088;52.238;21.104;2022-09-09T10:16:38;15.50;90.30
67161;DHT22;54088;52.238;21.104;2022-09-09T10:19:10;15.60;90.40
67161;DHT22;54088;52.238;21.104;2022-09-09T10:27:52;15.80;89.90
67161;DHT22;54088;52.238;21.104;2022-09-09T10:30:19;15.80;89.80
67161;DHT22;54088;52.238;21.104;2022-09-09T10:33:04;15.70;90.00
67161;DHT22;54088;52.238;21.104;2022-09-09T10:38:39;15.60;89.50
67161;DHT22;54088;52.238;21.104;2022-09-09T10:55:20;15.90;88.90
67161;DHT22;54088;52.238;21.104;2022-09-09T10:57:52;16.00;88.70
67161;DHT22;54088;52.238;21.104;2022-09-09T11:00:44;15.90;88.80
67161;DHT22;54088;52.238;21.104;2022-09-09T11:03:26;15.90;89.00
67161;DHT22;54088;52.238;21.104;2022-09-09T11:05:58;15.90;89.00
67161;DHT22;54088;52.238;21.104;2022-09-09T11:08:30;15.80;89.20
67161;DHT22;54088;52.238;21.104;2022-09-09T11:11:16;15.70;89.90
67161;DHT22;54088;52.238;21.104;2022-09-09T11:19:29;15.80;90.00
67161;DHT22;54088;52.238;21.104;2022-09-09T11:21:56;15.90;89.90
67161;DHT22;54088;52.238;21.104;2022-09-09T11:24:41;15.90;89.50
67161;DHT22;54088;52.238;21.104;2022-09-09T11:27:24;15.90;89.50
67161;DHT22;54088;52.238;21.104;2022-09-09T11:30:05;15.90;89.60
67161;DHT22;54088;52.238;21.104;2022-09-09T11:38:16;15.80;89.60
67161;DHT22;54088;52.238;21.104;2022-09-09T11:40:44;15.80;90.00
67161;DHT22;54088;52.238;21.104;2022-09-09T11:43:17;15.80;90.10
67161;DHT22;54088;52.238;21.104;2022-09-09T11:45:51;15.80;90.10
67161;DHT22;54088;52.238;21.104;2022-09-09T11:48:39;15.90;90.20
67161;DHT22;54088;52.238;21.104;2022-09-09T11:51:24;15.90;89.60
67161;DHT22;54088;52.238;21.104;2022-09-09T11:59:03;16.00;90.20
67161;DHT22;54088;52.238;21.104;2022-09-09T12:14:44;16.00;89.50
67161;DHT22;54088;52.238;21.104;2022-09-09T12:17:22;16.00;89.50
67161;DHT22;54088;52.238;21.104;2022-09-09T12:19:48;15.90;90.00
67161;DHT22;54088;52.238;21.104;2022-09-09T12:22:32;15.90;90.10
67161;DHT22;54088;52.238;21.104;2022-09-09T12:27:33;15.80;90.30
67161;DHT22;54088;52.238;21.104;2022-09-09T12:30:15;15.80;90.40
67161;DHT22;54088;52.238;21.104;2022-09-09T12:32:41;15.80;90.30
67161;DHT22;54088;52.238;21.104;2022-09-09T12:35:21;15.80;90.30
67161;DHT22;54088;52.238;21.104;2022-09-09T12:37:57;15.80;90.40
67161;DHT22;54088;52.238;21.104;2022-09-09T12:40:28;15.90;90.40
67161;DHT22;54088;52.238;21.104;2022-09-09T12:42:54;15.90;90.30
67161;DHT22;54088;52.238;21.104;2022-09-09T12:45:26;15.90;90.50
67161;DHT22;54088;52.238;21.104;2022-09-09T12:48:00;15.90;90.30
67161;DHT22;54088;52.238;21.104;2022-09-09T12:50:32;15.90;90.50
67161;DHT22;54088;52.238;21.104;2022-09-09T12:53:09;16.00;90.40
67161;DHT22;54088;52.238;21.104;2022-09-09T12:55:37;16.00;90.40
67161;DHT22;54088;52.238;21.104;2022-09-09T12:58:05;16.00;90.30
67161;DHT22;54088;52.238;21.104;2022-09-09T13:00:33;15.90;90.40
67161;DHT22;54088;52.238;21.104;2022-09-09T13:03:01;15.80;90.60
67161;DHT22;54088;52.238;21.104;2022-09-09T13:05:36;15.80;90.80
67161;DHT22;54088;52.238;21.104;2022-09-09T13:08:06;15.90;90.70
67161;DHT22;54088;52.238;21.104;2022-09-09T13:10:38;15.80;90.50
67161;DHT22;54088;52.238;21.104;2022-09-09T13:16:00;15.60;91.00
67161;DHT22;54088;52.238;21.104;2022-09-09T13:18:29;15.70;91.20
67161;DHT22;54088;52.238;21.104;2022-09-09T13:20:56;15.80;90.70
67161;DHT22;54088;52.238;21.104;2022-09-09T13:23:34;15.90;90.70
67161;DHT22;54088;52.238;21.104;2022-09-09T13:26:26;15.80;90.70
67161;DHT22;54088;52.238;21.104;2022-09-09T13:28:53;16.00;90.60
67161;DHT22;54088;52.238;21.104;2022-09-09T13:33:46;16.00;90.30
67161;DHT22;54088;52.238;21.104;2022-09-09T13:36:13;15.90;90.40
67161;DHT22;54088;52.238;21.104;2022-09-09T13:41:23;15.90;90.60
67161;DHT22;54088;52.238;21.104;2022-09-09T13:43:50;15.80;90.60
67161;DHT22;54088;52.238;21.104;2022-09-09T13:46:38;15.80;90.80
67161;DHT22;54088;52.238;21.104;2022-09-09T13:51:36;16.00;90.50
67161;DHT22;54088;52.238;21.104;2022-09-09T13:54:04;16.00;90.20
67161;DHT22;54088;52.238;21.104;2022-09-09T13:56:32;16.00;90.20
67161;DHT22;54088;52.238;21.104;2022-09-09T13:58:58;15.80;90.20
67161;DHT22;54088;52.238;21.104;2022-09-09T14:01:23;15.80;90.60
67161;DHT22;54088;52.238;21.104;2022-09-09T14:03:49;15.80;90.60
67161;DHT22;54088;52.238;21.104;2022-09-09T14:06:16;15.80;90.60
67161;DHT22;54088;52.238;21.104;2022-09-09T14:08:42;15.90;90.60
67161;DHT22;54088;52.238;21.104;2022-09-09T14:11:12;15.90;90.50
67161;DHT22;54088;52.238;21.104;2022-09-09T14:13:38;16.00;90.30
67161;DHT22;54088;52.238;21.104;2022-09-09T14:16:04;16.10;90.30
67161;DHT22;54088;52.238;21.104;2022-09-09T14:18:29;16.00;90.20
67161;DHT22;54088;52.238;21.104;2022-09-09T14:20:55;16.00;90.30
67161;DHT22;54088;52.238;21.104;2022-09-09T14:23:22;16.00;90.30
67161;DHT22;54088;52.238;21.104;2022-09-09T14:25:51;16.00;90.30
67161;DHT22;54088;52.238;21.104;2022-09-09T14:28:17;16.00;90.30
67161;DHT22;54088;52.238;21.104;2022-09-09T14:30:43;15.90;90.40
67161;DHT22;54088;52.238;21.104;2022-09-09T14:33:13;15.90;90.50
67161;DHT22;54088;52.238;21.104;2022-09-09T14:35:40;15.90;90.50
67161;DHT22;54088;52.238;21.104;2022-09-09T14:38:07;16.00;90.40
67161;DHT22;54088;52.238;21.104;2022-09-09T14:40:34;16.00;90.30
67161;DHT22;54088;52.238;21.104;2022-09-09T14:43:00;16.10;90.30
67161;DHT22;54088;52.238;21.104;2022-09-09T14:45:26;16.00;90.10
67161;DHT22;54088;52.238;21.104;2022-09-09T14:47:52;16.10;90.10
67161;DHT22;54088;52.238;21.104;2022-09-09T14:50:19;16.10;90.00
67161;DHT22;54088;52.238;21.104;2022-09-09T14:52:45;16.20;90.00
67161;DHT22;54088;52.238;21.104;2022-09-09T14:55:11;16.30;89.70
67161;DHT22;54088;52.238;21.104;2022-09-09T14:57:37;16.30;89.70
67161;DHT22;54088;52.238;21.104;2022-09-09T15:00:07;16.40;89.50
67161;DHT22;54088;52.238;21.104;2022-09-09T15:02:33;16.40;89.40
67161;DHT22;54088;52.238;21.104;2022-09-09T15:04:59;16.40;88.90
67161;DHT22;54088;52.238;21.104;2022-09-09T15:07:25;16.20;89.40
67161;DHT22;54088;52.238;21.104;2022-09-09T15:09:52;16.30;89.30
67161;DHT22;54088;52.238;21.104;2022-09-09T15:12:18;16.20;89.60
67161;DHT22;54088;52.238;21.104;2022-09-09T15:14:44;16.30;89.70
67161;DHT22;54088;52.238;21.104;2022-09-09T15:17:11;16.30;89.70
67161;DHT22;54088;52.238;21.104;2022-09-09T15:19:37;16.20;89.40
67161;DHT22;54088;52.238;21.104;2022-09-09T15:22:04;16.10;90.00
67161;DHT22;54088;52.238;21.104;2022-09-09T15:24:33;16.00;90.10
67161;DHT22;54088;52.238;21.104;2022-09-09T15:26:59;16.00;90.30
67161;DHT22;54088;52.238;21.104;2022-09-09T15:29:24;16.10;90.20
67161;DHT22;54088;52.238;21.104;2022-09-09T15:31:50;16.10;90.10
67161;DHT22;54088;52.238;21.104;2022-09-09T15:34:16;16.00;90.20
67161;DHT22;54088;52.238;21.104;2022-09-09T15:36:45;16.10;90.30
67161;DHT22;54088;52.238;21.104;2022-09-09T15:39:16;16.20;90.20
67161;DHT22;54088;52.238;21.104;2022-09-09T15:41:42;16.20;90.10
67161;DHT22;54088;52.238;21.104;2022-09-09T15:44:09;16.20;90.00
67161;DHT22;54088;52.238;21.104;2022-09-09T15:46:46;16.20;90.00
67161;DHT22;54088;52.238;21.104;2022-09-09T15:49:18;16.10;90.00
67161;DHT22;54088;52.238;21.104;2022-09-09T15:51:47;16.10;90.10
67161;DHT22;54088;52.238;21.104;2022-09-09T15:54:17;16.10;90.20
67161;DHT22;54088;52.238;21.104;2022-09-09T15:56:44;16.00;90.20
67161;DHT22;54088;52.238;21.104;2022-09-09T15:59:11;15.90;90.30
67161;DHT22;54088;52.238;21.104;2022-09-09T16:01:37;15.70;90.70
67161;DHT22;54088;52.238;21.104;2022-09-09T16:04:05;15.70;91.00
67161;DHT22;54088;52.238;21.104;2022-09-09T16:06:30;15.60;91.00
67161;DHT22;54088;52.238;21.104;2022-09-09T16:08:58;15.60;91.10
67161;DHT22;54088;52.238;21.104;2022-09-09T16:11:31;15.60;91.00
67161;DHT22;54088;52.238;21.104;2022-09-09T16:13:57;15.50;91.20
67161;DHT22;54088;52.238;21.104;2022-09-09T16:16:25;15.50;91.20
67161;DHT22;54088;52.238;21.104;2022-09-09T16:18:53;15.60;91.20
67161;DHT22;54088;52.238;21.104;2022-09-09T16:21:24;15.50;91.20
67161;DHT22;54088;52.238;21.104;2022-09-09T16:23:53;15.50;91.20
67161;DHT22;54088;52.238;21.104;2022-09-09T16:26:19;15.50;91.30
67161;DHT22;54088;52.238;21.104;2022-09-09T16:28:45;15.50;91.30
67161;DHT22;54088;52.238;21.104;2022-09-09T16:31:16;15.50;91.20
67161;DHT22;54088;52.238;21.104;2022-09-09T16:33:42;15.60;91.20
67161;DHT22;54088;52.238;21.104;2022-09-09T16:36:17;15.60;91.30
67161;DHT22;54088;52.238;21.104;2022-09-09T16:38:43;15.60;91.00
67161;DHT22;54088;52.238;21.104;2022-09-09T16:41:10;15.60;90.90
67161;DHT22;54088;52.238;21.104;2022-09-09T16:43:37;15.70;90.80
67161;DHT22;54088;52.238;21.104;2022-09-09T16:46:11;15.70;90.70
67161;DHT22;54088;52.238;21.104;2022-09-09T16:48:37;15.60;90.80
67161;DHT22;54088;52.238;21.104;2022-09-09T16:51:06;15.50;90.80
67161;DHT22;54088;52.238;21.104;2022-09-09T16:53:33;15.50;91.00
67161;DHT22;54088;52.238;21.104;2022-09-09T16:56:08;15.50;90.80
67161;DHT22;54088;52.238;21.104;2022-09-09T16:58:35;15.50;91.00
67161;DHT22;54088;52.238;21.104;2022-09-09T17:01:01;15.50;90.90
67161;DHT22;54088;52.238;21.104;2022-09-09T17:03:28;15.50;90.90
67161;DHT22;54088;52.238;21.104;2022-09-09T17:05:54;15.40;91.00
67161;DHT22;54088;52.238;21.104;2022-09-09T17:08:20;15.30;91.10
67161;DHT22;54088;52.238;21.104;2022-09-09T17:10:46;15.30;91.20
67161;DHT22;54088;52.238;21.104;2022-09-09T17:13:12;15.30;91.30
67161;DHT22;54088;52.238;21.104;2022-09-09T17:15:42;15.20;91.40
67161;DHT22;54088;52.238;21.104;2022-09-09T17:18:09;15.10;91.70
67161;DHT22;54088;52.238;21.104;2022-09-09T17:20:39;15.20;91.60
67161;DHT22;54088;52.238;21.104;2022-09-09T17:23:08;15.20;91.40
67161;DHT22;54088;52.238;21.104;2022-09-09T17:25:35;15.30;91.40
67161;DHT22;54088;52.238;21.104;2022-09-09T17:28:02;15.30;91.30
67161;DHT22;54088;52.238;21.104;2022-09-09T17:30:33;15.30;91.30
67161;DHT22;54088;52.238;21.104;2022-09-09T17:32:59;15.30;91.20
67161;DHT22;54088;52.238;21.104;2022-09-09T17:35:25;15.40;91.10
67161;DHT22;54088;52.238;21.104;2022-09-09T17:37:53;15.40;91.00
67161;DHT22;54088;52.238;21.104;2022-09-09T17:40:20;15.40;91.00
67161;DHT22;54088;52.238;21.104;2022-09-09T17:42:46;15.40;91.10
67161;DHT22;54088;52.238;21.104;2022-09-09T17:45:13;15.30;91.20
67161;DHT22;54088;52.238;21.104;2022-09-09T17:47:40;15.30;91.20
67161;DHT22;54088;52.238;21.104;2022-09-09T17:50:09;15.40;91.10